Sitka Rocky Gutierrez Airport
PASI : now visible

Airfield :











YOU CAN JOIN US ON...

 
LOGIN :

Register | Disclaimer

   EN    FR    IT 

 









Legend :    VFR   Marginal VFR   IFR   Intensive IFR   Very Intensive IFR
Visi :
Ceiling :
>= 8 km
>= 3000ft
5 to 8 km
1000 to 3000 ft
1500m to 5 km
500 to 1000 ft
800 to 1500m
200 to 500 ft
< 800m
< 200 ft
Symbols :   Thunderstorms  Fog  Heavy snow  Heavy precipitations  Wind > 20 kt






- Airport Elevation : 21 ft
- IATA code : SIT


PASI - Sitka Rocky Gutierrez

CURRENT METAR :
  • 291853Z COR 10005KT 8SM FEW026 SCT039 OVC070 04/02 A2949 RMK AO2 RAE07 SLP985 P0000 T00390017

EXPIRED METARs :
  • 291820Z 09007KT 7SM SCT030 SCT049 OVC060 04/02 A2949 RMK AO2 RAE07 P0000 T00440022
  • 291753Z 11006KT 4SM -RA FEW023 BKN028 OVC035 05/02 A2949 RMK AO2 RAB22E26B45PLB21E27B33E36GRB27E30GSB30E33 SLP986 P0008 60009 T00500022 10067 20044 53004
  • 291742Z 17006KT 7SM FEW020 BKN025 OVC036 05/02 A2949 RMK AO2 RAB22E26PLB21E27B33E36GRB27E30GSB30E33 P0007 T00500022
  • 291733Z 13008KT 4SM PL OVC023 04/02 A2948 RMK AO2 RAB22E26PLB21E27B33GRB27E30GSB30E33 P0007 T00440017
  • 291714Z 13008KT 8SM BKN023 OVC029 06/02 A2949 RMK AO2 T00610022
  • 291707Z 13007KT 9SM SCT025 BKN030 OVC036 06/02 A2948 RMK AO2 T00610017
  • 291653Z 15005G16KT 10SM BKN029 BKN036 OVC055 06/01 A2947 RMK AO2 RAB29E49 SLP980 P0001 T00610011

TAF PASI
Valid from the 29 at 18:00 until the 30 at 18:00 UTC


291734Z 2918/3018 14010KT P6SM -SHRA VCTS SCT025CB BKN035 OVC060
TEMPO 2918/2921 14010G16KT 5SM -SHRAPL BKN025 OVC035
FM300000 VRB06KT P6SM -SHRA BKN035 BKN060
PAZA FIR / North America



MET'MAP, your aeronautical weather chart ! - Copyright ORBIFLY December 2007 - Disclaimer

ORBIFLY MET'MAP TEAM :

Programming & Development : Alexandra Zaïnal
Concept & original design : Baudouin d'Aumeries
Assistance for programming : Marc-Olivier Méhu
Technical & hardware support : Manuel Goepfert

Contact : metmap@orbifly.com




SOURCES & CREDITS :

   NOAA       Earth
Advisory